createdAt,value
2023-03-16T00:00:31.765Z,77
2023-03-16T00:01:31.764Z,77
2023-03-16T00:02:31.736Z,77
2023-03-16T00:03:31.920Z,76
2023-03-16T00:04:31.729Z,76
2023-03-16T00:05:31.774Z,77
2023-03-16T00:06:31.758Z,77
2023-03-16T00:07:31.800Z,77
2023-03-16T00:08:31.728Z,77
2023-03-16T00:09:31.759Z,77
2023-03-16T00:10:31.778Z,77
2023-03-16T00:11:31.795Z,77
2023-03-16T00:12:31.760Z,77
2023-03-16T00:13:31.777Z,77
2023-03-16T00:14:31.746Z,77
2023-03-16T00:15:31.783Z,77
2023-03-16T00:16:31.853Z,77
2023-03-16T00:17:31.769Z,77
2023-03-16T00:18:31.735Z,77
2023-03-16T00:19:31.765Z,78
2023-03-16T00:20:31.729Z,78
2023-03-16T00:21:31.764Z,78
2023-03-16T00:22:32.947Z,78
2023-03-16T00:23:31.784Z,78
2023-03-16T00:24:31.746Z,78
2023-03-16T00:25:31.767Z,78
2023-03-16T00:26:31.768Z,78
2023-03-16T00:27:31.797Z,79
2023-03-16T00:28:31.751Z,79
2023-03-16T00:29:31.792Z,79
2023-03-16T00:30:31.760Z,79
2023-03-16T00:31:31.790Z,79
2023-03-16T00:32:31.829Z,79
2023-03-16T00:33:31.760Z,79
2023-03-16T00:34:31.767Z,79
2023-03-16T00:35:31.778Z,79
2023-03-16T00:36:31.727Z,79
2023-03-16T00:37:31.801Z,79
2023-03-16T00:38:31.876Z,79
2023-03-16T00:39:31.811Z,79
2023-03-16T00:40:31.727Z,79
2023-03-16T00:41:31.768Z,79
2023-03-16T00:42:32.302Z,79
2023-03-16T00:43:31.751Z,80
2023-03-16T00:44:31.721Z,80
2023-03-16T00:45:31.754Z,79
2023-03-16T00:46:31.838Z,79
2023-03-16T00:47:31.737Z,80
2023-03-16T00:48:31.732Z,79
2023-03-16T00:49:31.723Z,79
2023-03-16T00:50:31.775Z,80
2023-03-16T00:51:31.735Z,79
2023-03-16T00:52:32.213Z,79
2023-03-16T00:53:31.733Z,79
2023-03-16T00:54:31.771Z,79
2023-03-16T00:55:31.740Z,79
2023-03-16T00:56:31.759Z,79
2023-03-16T00:57:31.737Z,79
2023-03-16T00:58:31.759Z,79
2023-03-16T00:59:31.774Z,79
2023-03-16T01:00:31.763Z,79
2023-03-16T01:01:31.779Z,79
2023-03-16T01:02:32.317Z,79
2023-03-16T01:03:31.807Z,80
2023-03-16T01:04:31.806Z,80
2023-03-16T01:05:31.738Z,80
2023-03-16T01:06:31.796Z,80
2023-03-16T01:07:31.726Z,80
2023-03-16T01:08:31.765Z,80
2023-03-16T01:09:31.744Z,80
2023-03-16T01:10:31.766Z,80
2023-03-16T01:11:31.743Z,80
2023-03-16T01:12:32.189Z,80
2023-03-16T01:13:31.727Z,80
2023-03-16T01:14:31.745Z,80
2023-03-16T01:15:31.741Z,80
2023-03-16T01:16:31.808Z,80
2023-03-16T01:17:31.719Z,80
2023-03-16T01:18:31.772Z,81
2023-03-16T01:19:31.774Z,81
2023-03-16T01:20:31.786Z,81
2023-03-16T01:21:31.744Z,81
2023-03-16T01:22:32.410Z,81
2023-03-16T01:23:31.744Z,81
2023-03-16T01:24:31.754Z,81
2023-03-16T01:25:31.741Z,81
2023-03-16T01:26:31.767Z,81
2023-03-16T01:27:31.710Z,81
2023-03-16T01:28:31.741Z,81
2023-03-16T01:29:31.702Z,82
2023-03-16T01:30:31.792Z,82
2023-03-16T01:31:31.709Z,82
2023-03-16T01:32:32.462Z,82
2023-03-16T01:33:31.742Z,82
2023-03-16T01:34:31.741Z,82
2023-03-16T01:35:31.798Z,82
2023-03-16T01:36:31.733Z,81
2023-03-16T01:37:31.736Z,81
2023-03-16T01:38:31.787Z,81
2023-03-16T01:39:31.735Z,81
2023-03-16T01:40:31.930Z,81
2023-03-16T01:41:31.859Z,81
2023-03-16T01:42:34.184Z,81
2023-03-16T01:43:31.854Z,81
2023-03-16T01:44:31.865Z,81
2023-03-16T01:45:31.891Z,81
2023-03-16T01:46:31.978Z,81
2023-03-16T01:47:31.851Z,81
2023-03-16T01:48:31.868Z,81
2023-03-16T01:49:31.873Z,81
2023-03-16T01:50:31.893Z,81
2023-03-16T01:51:31.850Z,82
2023-03-16T01:52:32.377Z,82
2023-03-16T01:53:31.900Z,82
2023-03-16T01:54:31.850Z,82
2023-03-16T01:55:31.830Z,82
2023-03-16T01:56:31.838Z,82
2023-03-16T01:57:31.765Z,82
2023-03-16T01:58:31.763Z,83
2023-03-16T01:59:31.722Z,83
2023-03-16T02:00:31.725Z,83
2023-03-16T02:01:31.811Z,83
2023-03-16T02:02:31.726Z,83
2023-03-16T02:03:31.764Z,83
2023-03-16T02:04:31.777Z,83
2023-03-16T02:05:31.777Z,83
2023-03-16T02:06:31.724Z,83
2023-03-16T02:07:31.726Z,83
2023-03-16T02:08:31.712Z,83
2023-03-16T02:09:31.754Z,83
2023-03-16T02:10:31.745Z,83
2023-03-16T02:11:31.713Z,84
2023-03-16T02:12:31.748Z,84
2023-03-16T02:13:31.759Z,84
2023-03-16T02:14:31.748Z,84
2023-03-16T02:15:31.795Z,84
2023-03-16T02:16:31.720Z,84
2023-03-16T02:17:31.762Z,84
2023-03-16T02:18:31.750Z,84
2023-03-16T02:19:31.738Z,84
2023-03-16T02:20:31.737Z,84
2023-03-16T02:21:31.772Z,84
2023-03-16T02:22:32.422Z,84
2023-03-16T02:23:31.763Z,84
2023-03-16T02:24:31.736Z,84
2023-03-16T02:25:31.797Z,84
2023-03-16T02:26:31.728Z,84
2023-03-16T02:27:31.723Z,83
2023-03-16T02:28:31.727Z,83
2023-03-16T02:29:31.742Z,83
2023-03-16T02:30:31.719Z,83
2023-03-16T02:31:31.869Z,82
2023-03-16T02:32:31.752Z,82
2023-03-16T02:33:31.758Z,82
2023-03-16T02:34:31.795Z,81
2023-03-16T02:35:31.773Z,81
2023-03-16T02:36:31.714Z,81
2023-03-16T02:37:31.751Z,81
2023-03-16T02:38:31.739Z,80
2023-03-16T02:39:31.715Z,80
2023-03-16T02:40:31.770Z,80
2023-03-16T02:41:31.768Z,80
2023-03-16T02:42:32.677Z,80
2023-03-16T02:43:31.735Z,80
2023-03-16T02:44:31.743Z,80
2023-03-16T02:45:31.698Z,80
2023-03-16T02:46:31.871Z,80
2023-03-16T02:47:31.719Z,80
2023-03-16T02:48:31.772Z,80
2023-03-16T02:49:31.763Z,80
2023-03-16T02:50:31.735Z,80
2023-03-16T02:51:31.773Z,80
2023-03-16T02:52:32.220Z,81
2023-03-16T02:53:31.706Z,81
2023-03-16T02:54:31.771Z,81
2023-03-16T02:55:31.771Z,81
2023-03-16T02:56:31.731Z,80
2023-03-16T02:57:31.742Z,80
2023-03-16T02:58:31.758Z,80
2023-03-16T02:59:31.841Z,81
2023-03-16T03:00:31.733Z,81
2023-03-16T03:01:31.741Z,81
2023-03-16T03:02:31.733Z,81
2023-03-16T03:03:31.855Z,81
2023-03-16T03:04:31.764Z,81
2023-03-16T03:05:31.722Z,81
2023-03-16T03:06:31.802Z,81
2023-03-16T03:07:31.774Z,81
2023-03-16T03:08:31.721Z,81
2023-03-16T03:09:31.723Z,81
2023-03-16T03:10:31.737Z,81
2023-03-16T03:11:31.905Z,81
2023-03-16T03:12:31.793Z,81
2023-03-16T03:13:31.785Z,80
2023-03-16T03:14:31.772Z,80
2023-03-16T03:15:31.735Z,81
2023-03-16T03:16:31.908Z,81
2023-03-16T03:17:31.869Z,81
2023-03-16T03:18:31.900Z,81
2023-03-16T03:19:31.920Z,81
2023-03-16T03:20:31.864Z,81
2023-03-16T03:21:31.778Z,81
2023-03-16T03:22:32.349Z,81
2023-03-16T03:23:31.810Z,81
2023-03-16T03:24:31.796Z,81
2023-03-16T03:25:31.712Z,81
2023-03-16T03:26:31.748Z,81
2023-03-16T03:27:31.906Z,81
2023-03-16T03:28:31.841Z,81
2023-03-16T03:29:31.761Z,81
2023-03-16T03:30:31.868Z,81
2023-03-16T03:31:31.773Z,81
2023-03-16T03:32:32.687Z,81
2023-03-16T03:33:31.735Z,81
2023-03-16T03:34:31.775Z,81
2023-03-16T03:35:31.934Z,81
2023-03-16T03:36:31.790Z,81
2023-03-16T03:37:31.722Z,81
2023-03-16T03:38:31.850Z,82
2023-03-16T03:39:31.735Z,82
2023-03-16T03:40:31.868Z,82
2023-03-16T03:41:31.841Z,82
2023-03-16T03:42:32.704Z,82
2023-03-16T03:43:31.854Z,82
2023-03-16T03:44:31.781Z,82
2023-03-16T03:45:31.862Z,82
2023-03-16T03:46:32.041Z,82
2023-03-16T03:47:31.794Z,82
2023-03-16T03:48:31.755Z,82
2023-03-16T03:49:31.831Z,82
2023-03-16T03:50:31.724Z,82
2023-03-16T03:51:31.766Z,82
2023-03-16T03:52:31.759Z,82
2023-03-16T03:53:31.757Z,82
2023-03-16T03:54:31.724Z,82
2023-03-16T03:55:31.771Z,83
2023-03-16T03:56:31.768Z,83
2023-03-16T03:57:31.736Z,83
2023-03-16T03:58:31.783Z,82
2023-03-16T03:59:31.771Z,82
2023-03-16T04:00:31.769Z,82
2023-03-16T04:01:31.752Z,82
2023-03-16T04:02:31.836Z,82
2023-03-16T04:03:31.877Z,82
2023-03-16T04:04:31.722Z,81
2023-03-16T04:05:31.744Z,81
2023-03-16T04:06:31.853Z,81
2023-03-16T04:07:31.747Z,82
2023-03-16T04:08:31.732Z,82
2023-03-16T04:09:31.708Z,81
2023-03-16T04:10:31.710Z,82
2023-03-16T04:11:31.788Z,81
2023-03-16T04:12:32.115Z,81
2023-03-16T04:13:31.804Z,81
2023-03-16T04:14:31.701Z,81
2023-03-16T04:15:31.750Z,81
2023-03-16T04:16:31.829Z,81
2023-03-16T04:17:31.717Z,81
2023-03-16T04:18:31.733Z,81
2023-03-16T04:19:31.852Z,81
2023-03-16T04:20:31.764Z,81
2023-03-16T04:21:31.738Z,81
2023-03-16T04:22:31.766Z,81
2023-03-16T04:23:31.735Z,81
2023-03-16T04:24:31.746Z,82
2023-03-16T04:25:31.695Z,82
2023-03-16T04:26:31.716Z,82
2023-03-16T04:27:31.749Z,82
2023-03-16T04:28:31.757Z,82
2023-03-16T04:29:31.741Z,82
2023-03-16T04:30:31.738Z,82
2023-03-16T04:31:31.757Z,82
2023-03-16T04:32:31.802Z,82
2023-03-16T04:33:31.774Z,82
2023-03-16T04:34:31.731Z,82
2023-03-16T04:35:31.868Z,82
2023-03-16T04:36:31.737Z,82
2023-03-16T04:37:31.706Z,82
2023-03-16T04:38:31.709Z,82
2023-03-16T04:39:31.865Z,82
2023-03-16T04:40:31.763Z,82
2023-03-16T04:41:31.749Z,82
2023-03-16T04:42:32.217Z,82
2023-03-16T04:43:31.767Z,82
2023-03-16T04:44:31.707Z,82
2023-03-16T04:45:31.774Z,83
2023-03-16T04:46:31.780Z,83
2023-03-16T04:47:31.720Z,83
2023-03-16T04:48:31.724Z,83
2023-03-16T04:49:31.713Z,83
2023-03-16T04:50:31.731Z,82
2023-03-16T04:51:31.837Z,82
2023-03-16T04:52:31.856Z,82
2023-03-16T04:53:31.708Z,82
2023-03-16T04:54:31.785Z,82
2023-03-16T04:55:31.731Z,82
2023-03-16T04:56:31.715Z,82
2023-03-16T04:57:31.880Z,82
2023-03-16T04:58:31.741Z,82
2023-03-16T04:59:31.723Z,82
2023-03-16T05:00:31.735Z,82
2023-03-16T05:01:31.846Z,82
2023-03-16T05:02:31.728Z,82
2023-03-16T05:03:31.756Z,82
2023-03-16T05:04:31.745Z,82
2023-03-16T05:05:31.792Z,81
2023-03-16T05:06:31.691Z,82
2023-03-16T05:07:31.753Z,81
2023-03-16T05:08:31.758Z,82
2023-03-16T05:09:31.725Z,81
2023-03-16T05:10:31.692Z,81
2023-03-16T05:11:31.743Z,81
2023-03-16T05:12:32.062Z,81
2023-03-16T05:13:31.773Z,81
2023-03-16T05:14:31.678Z,81
2023-03-16T05:15:31.746Z,81
2023-03-16T05:16:31.718Z,82
2023-03-16T05:17:31.739Z,82
2023-03-16T05:18:31.693Z,82
2023-03-16T05:19:31.771Z,82
2023-03-16T05:20:31.713Z,82
2023-03-16T05:21:31.709Z,82
2023-03-16T05:22:32.112Z,82
2023-03-16T05:23:31.746Z,82
2023-03-16T05:24:31.708Z,82
2023-03-16T05:25:31.721Z,82
2023-03-16T05:26:31.730Z,83
2023-03-16T05:27:31.729Z,82
2023-03-16T05:28:31.715Z,82
2023-03-16T05:29:31.751Z,82
2023-03-16T05:30:31.727Z,83
2023-03-16T05:31:31.797Z,83
2023-03-16T05:32:32.120Z,83
2023-03-16T05:33:31.736Z,83
2023-03-16T05:34:31.713Z,83
2023-03-16T05:35:31.802Z,83
2023-03-16T05:36:31.675Z,82
2023-03-16T05:37:31.700Z,82
2023-03-16T05:38:31.733Z,82
2023-03-16T05:39:31.731Z,82
2023-03-16T05:40:31.732Z,82
2023-03-16T05:41:31.718Z,82
2023-03-16T05:42:31.711Z,82
2023-03-16T05:43:31.808Z,81
2023-03-16T05:44:31.702Z,81
2023-03-16T05:45:31.686Z,81
2023-03-16T05:46:31.759Z,81
2023-03-16T05:47:31.717Z,80
2023-03-16T05:48:31.712Z,80
2023-03-16T05:49:31.748Z,80
2023-03-16T05:50:31.742Z,80
2023-03-16T05:51:31.756Z,80
2023-03-16T05:52:31.742Z,80
2023-03-16T05:53:31.743Z,80
2023-03-16T05:54:31.790Z,80
2023-03-16T05:55:31.704Z,79
2023-03-16T05:56:31.707Z,79
2023-03-16T05:57:31.722Z,79
2023-03-16T05:58:31.755Z,78
2023-03-16T05:59:31.696Z,78
2023-03-16T06:00:31.791Z,78
2023-03-16T06:01:31.727Z,78
2023-03-16T06:02:32.276Z,78
2023-03-16T06:03:31.714Z,77
2023-03-16T06:04:31.791Z,77
2023-03-16T06:05:31.739Z,77
2023-03-16T06:06:31.725Z,77
2023-03-16T06:07:31.740Z,77
2023-03-16T06:08:31.725Z,77
2023-03-16T06:09:31.724Z,77
2023-03-16T06:10:31.711Z,77
2023-03-16T06:11:31.706Z,77
2023-03-16T06:12:31.702Z,77
2023-03-16T06:13:31.788Z,78
2023-03-16T06:14:31.720Z,78
2023-03-16T06:15:31.714Z,78
2023-03-16T06:16:31.740Z,78
2023-03-16T06:17:31.781Z,77
2023-03-16T06:18:31.712Z,77
2023-03-16T06:19:31.696Z,77
2023-03-16T06:20:31.742Z,76
2023-03-16T06:21:31.774Z,76
2023-03-16T06:22:31.762Z,76
2023-03-16T06:23:31.715Z,76
2023-03-16T06:24:31.781Z,76
2023-03-16T06:25:31.743Z,76
2023-03-16T06:26:31.730Z,76
2023-03-16T06:27:31.699Z,76
2023-03-16T06:28:31.721Z,75
2023-03-16T06:29:31.718Z,75
2023-03-16T06:30:31.722Z,75
2023-03-16T06:31:31.752Z,74
2023-03-16T06:32:32.219Z,73
2023-03-16T06:33:31.718Z,73
2023-03-16T06:34:31.739Z,73
2023-03-16T06:35:31.765Z,73
2023-03-16T06:36:31.714Z,73
2023-03-16T06:37:31.815Z,73
2023-03-16T06:38:31.702Z,73
2023-03-16T06:39:31.820Z,73
2023-03-16T06:40:31.717Z,73
2023-03-16T06:41:31.751Z,73
2023-03-16T06:42:31.748Z,73
2023-03-16T06:43:31.740Z,72
2023-03-16T06:44:31.740Z,72
2023-03-16T06:45:31.737Z,72
2023-03-16T06:46:31.707Z,72
2023-03-16T06:47:31.724Z,72
2023-03-16T06:48:31.703Z,72
2023-03-16T06:49:31.752Z,72
2023-03-16T06:50:31.711Z,72
2023-03-16T06:51:31.713Z,72
2023-03-16T06:52:31.755Z,72
2023-03-16T06:53:31.753Z,73
2023-03-16T06:54:31.690Z,72
2023-03-16T06:55:31.706Z,72
2023-03-16T06:56:31.804Z,72
2023-03-16T06:57:31.727Z,73
2023-03-16T06:58:31.711Z,73
2023-03-16T06:59:31.712Z,73
2023-03-16T07:00:32.127Z,73
2023-03-16T07:01:32.368Z,72
2023-03-16T07:02:48.230Z,72
2023-03-16T07:03:31.743Z,72
2023-03-16T07:04:31.901Z,71
2023-03-16T07:05:31.741Z,71
2023-03-16T07:06:31.725Z,70
2023-03-16T07:07:31.724Z,71
2023-03-16T07:08:31.738Z,71
2023-03-16T07:09:31.783Z,71
2023-03-16T07:10:31.787Z,71
2023-03-16T07:11:31.721Z,71
2023-03-16T07:12:31.761Z,71
2023-03-16T07:13:31.716Z,71
2023-03-16T07:14:31.750Z,71
2023-03-16T07:15:31.704Z,72
2023-03-16T07:16:31.774Z,71
2023-03-16T07:17:31.737Z,71
2023-03-16T07:18:31.766Z,71
2023-03-16T07:19:31.703Z,71
2023-03-16T07:20:31.831Z,71
2023-03-16T07:21:31.737Z,71
2023-03-16T07:22:32.212Z,71
2023-03-16T07:23:31.712Z,71
2023-03-16T07:24:31.753Z,70
2023-03-16T07:25:31.750Z,70
2023-03-16T07:26:31.752Z,69
2023-03-16T07:27:31.713Z,69
2023-03-16T07:28:31.743Z,68
2023-03-16T07:29:31.757Z,68
2023-03-16T07:30:31.739Z,67
2023-03-16T07:31:31.813Z,67
2023-03-16T07:32:31.818Z,67
2023-03-16T07:33:31.736Z,66
2023-03-16T07:34:31.700Z,66
2023-03-16T07:35:31.772Z,65
2023-03-16T07:36:31.730Z,65
2023-03-16T07:37:31.729Z,64
2023-03-16T07:38:31.715Z,64
2023-03-16T07:39:31.717Z,64
2023-03-16T07:40:31.889Z,64
2023-03-16T07:41:32.724Z,64
2023-03-16T07:42:32.217Z,64
2023-03-16T07:43:31.712Z,63
2023-03-16T07:44:31.773Z,63
2023-03-16T07:45:31.755Z,62
2023-03-16T07:46:31.810Z,62
2023-03-16T07:47:31.753Z,62
2023-03-16T07:48:31.704Z,62
2023-03-16T07:49:31.758Z,62
2023-03-16T07:50:31.814Z,62
2023-03-16T07:51:31.757Z,61
2023-03-16T07:52:31.723Z,61
2023-03-16T07:53:31.776Z,61
2023-03-16T07:54:31.711Z,61
2023-03-16T07:55:31.725Z,61
2023-03-16T07:56:45.877Z,61
2023-03-16T07:57:31.761Z,61
2023-03-16T07:58:31.752Z,61
2023-03-16T07:59:31.712Z,60
2023-03-16T08:00:32.044Z,61
2023-03-16T08:01:31.717Z,61
2023-03-16T08:02:32.505Z,60
2023-03-16T08:03:31.833Z,60
2023-03-16T08:04:31.837Z,60
2023-03-16T08:05:31.707Z,60
2023-03-16T08:06:31.769Z,60
2023-03-16T08:07:31.693Z,60
2023-03-16T08:08:31.723Z,59
2023-03-16T08:09:31.773Z,59
2023-03-16T08:10:32.070Z,60
2023-03-16T08:11:31.786Z,59
2023-03-16T08:12:31.773Z,59
2023-03-16T08:13:31.813Z,59
2023-03-16T08:14:31.714Z,60
2023-03-16T08:15:31.810Z,59
2023-03-16T08:16:31.857Z,59
2023-03-16T08:17:31.710Z,59
2023-03-16T08:18:31.723Z,58
2023-03-16T08:19:31.742Z,58
2023-03-16T08:20:32.337Z,58
2023-03-16T08:21:31.782Z,58
2023-03-16T08:22:32.336Z,57
2023-03-16T08:23:31.757Z,57
2023-03-16T08:24:31.719Z,57
2023-03-16T08:25:31.787Z,57
2023-03-16T08:26:31.718Z,58
2023-03-16T08:27:31.821Z,58
2023-03-16T08:28:31.777Z,57
2023-03-16T08:29:31.712Z,57
2023-03-16T08:30:32.156Z,57
2023-03-16T08:31:31.840Z,57
2023-03-16T08:32:31.771Z,57
2023-03-16T08:33:31.722Z,56
2023-03-16T08:34:31.710Z,57
2023-03-16T08:35:31.729Z,57
2023-03-16T08:36:31.726Z,57
2023-03-16T08:37:31.710Z,57
2023-03-16T08:38:31.718Z,57
2023-03-16T08:39:31.780Z,57
2023-03-16T08:40:32.187Z,57
2023-03-16T08:41:31.712Z,57
2023-03-16T08:42:31.711Z,56
2023-03-16T08:43:31.724Z,55
2023-03-16T08:44:31.881Z,56
2023-03-16T08:45:31.714Z,56
2023-03-16T08:46:31.774Z,56
2023-03-16T08:47:31.736Z,55
2023-03-16T08:48:31.703Z,54
2023-03-16T08:49:31.714Z,55
2023-03-16T08:50:31.834Z,55
2023-03-16T08:51:31.735Z,55
2023-03-16T08:52:31.709Z,55
2023-03-16T08:53:31.712Z,56
2023-03-16T08:54:31.774Z,56
2023-03-16T08:55:31.740Z,56
2023-03-16T08:56:31.712Z,56
2023-03-16T08:57:31.743Z,56
2023-03-16T08:58:31.746Z,56
2023-03-16T08:59:31.740Z,56
2023-03-16T09:00:31.697Z,56
2023-03-16T09:01:31.736Z,55
2023-03-16T09:02:32.299Z,55
2023-03-16T09:03:31.685Z,54
2023-03-16T09:04:31.849Z,54
2023-03-16T09:05:31.714Z,53
2023-03-16T09:06:31.753Z,53
2023-03-16T09:07:31.735Z,52
2023-03-16T09:08:31.706Z,52
2023-03-16T09:09:31.737Z,53
2023-03-16T09:10:31.942Z,52
2023-03-16T09:11:31.744Z,52
2023-03-16T09:12:32.112Z,52
2023-03-16T09:13:31.683Z,53
2023-03-16T09:14:31.813Z,53
2023-03-16T09:15:31.732Z,53
2023-03-16T09:16:31.770Z,53
2023-03-16T09:17:31.728Z,53
2023-03-16T09:18:31.727Z,52
2023-03-16T09:19:47.906Z,52
2023-03-16T09:20:33.306Z,53
2023-03-16T09:21:31.655Z,52
2023-03-16T09:22:31.733Z,52
2023-03-16T09:23:31.698Z,52
2023-03-16T09:24:31.946Z,52
2023-03-16T09:25:32.147Z,53
2023-03-16T09:26:31.788Z,53
2023-03-16T09:27:31.683Z,51
2023-03-16T09:28:31.761Z,50
2023-03-16T09:29:31.729Z,50
2023-03-16T09:30:32.077Z,50
2023-03-16T09:31:31.773Z,51
2023-03-16T09:32:32.493Z,50
2023-03-16T09:33:31.686Z,52
2023-03-16T09:34:33.215Z,51
2023-03-16T09:35:32.807Z,51
2023-03-16T09:36:31.783Z,51
2023-03-16T09:37:44.503Z,50
2023-03-16T09:38:31.811Z,50
2023-03-16T09:39:31.685Z,51
2023-03-16T09:40:31.722Z,51
2023-03-16T09:41:31.705Z,51
2023-03-16T09:42:31.748Z,51
2023-03-16T09:43:31.728Z,50
2023-03-16T09:44:31.721Z,50
2023-03-16T09:45:32.326Z,51
2023-03-16T09:46:31.714Z,51
2023-03-16T09:47:31.710Z,51
2023-03-16T09:48:31.730Z,51
2023-03-16T09:49:31.730Z,51
2023-03-16T09:50:47.169Z,50
2023-03-16T09:51:31.777Z,51
2023-03-16T09:52:32.790Z,51
2023-03-16T09:53:31.680Z,52
2023-03-16T09:54:31.727Z,52
2023-03-16T09:55:31.734Z,52
2023-03-16T09:56:31.737Z,52
2023-03-16T09:57:31.691Z,52
2023-03-16T09:58:31.705Z,52
2023-03-16T09:59:31.724Z,51
2023-03-16T10:00:31.716Z,51
2023-03-16T10:01:31.778Z,51
2023-03-16T10:02:32.898Z,51
2023-03-16T10:03:31.741Z,51
2023-03-16T10:04:31.739Z,51
2023-03-16T10:05:31.719Z,51
2023-03-16T10:06:31.725Z,51
2023-03-16T10:07:31.699Z,51
2023-03-16T10:08:31.716Z,52
2023-03-16T10:09:31.806Z,52
2023-03-16T10:10:31.930Z,51
2023-03-16T10:11:31.713Z,52
2023-03-16T10:12:31.916Z,51
2023-03-16T10:13:31.808Z,51
2023-03-16T10:14:31.706Z,51
2023-03-16T10:15:31.843Z,51
2023-03-16T10:16:31.948Z,52
2023-03-16T10:17:31.713Z,52
2023-03-16T10:18:31.890Z,52
2023-03-16T10:19:32.850Z,52
2023-03-16T10:20:32.057Z,51
2023-03-16T10:21:31.819Z,51
2023-03-16T10:22:35.421Z,51
2023-03-16T10:23:31.845Z,51
2023-03-16T10:24:31.869Z,52
2023-03-16T10:25:31.720Z,52
2023-03-16T10:26:33.123Z,51
2023-03-16T10:27:32.778Z,52
2023-03-16T10:28:31.824Z,52
2023-03-16T10:29:31.694Z,52
2023-03-16T10:30:31.950Z,52
2023-03-16T10:31:31.903Z,52
2023-03-16T10:32:32.555Z,52
2023-03-16T10:33:31.851Z,52
2023-03-16T10:34:32.813Z,52
2023-03-16T10:35:32.777Z,52
2023-03-16T10:36:31.776Z,52
2023-03-16T10:37:31.745Z,52
2023-03-16T10:38:31.846Z,52
2023-03-16T10:39:31.713Z,53
2023-03-16T10:40:31.707Z,54
2023-03-16T10:41:32.049Z,54
2023-03-16T10:42:31.850Z,52
2023-03-16T10:43:31.708Z,52
2023-03-16T10:44:31.719Z,52
2023-03-16T10:45:32.242Z,52
2023-03-16T10:46:31.834Z,52
2023-03-16T10:47:31.702Z,53
2023-03-16T10:48:33.917Z,53
2023-03-16T10:49:33.421Z,53
2023-03-16T10:50:31.740Z,53
2023-03-16T10:51:31.759Z,53
2023-03-16T10:52:31.730Z,52
2023-03-16T10:53:31.696Z,53
2023-03-16T10:54:31.740Z,52
2023-03-16T10:55:31.767Z,52
2023-03-16T10:56:31.793Z,53
2023-03-16T10:57:31.700Z,52
2023-03-16T10:58:31.720Z,52
2023-03-16T10:59:31.719Z,50
2023-03-16T11:00:31.753Z,51
2023-03-16T11:01:31.772Z,53
2023-03-16T11:02:33.065Z,53
2023-03-16T11:03:31.770Z,53
2023-03-16T11:04:31.850Z,53
2023-03-16T11:05:31.913Z,53
2023-03-16T11:06:31.746Z,53
2023-03-16T11:07:31.699Z,52
2023-03-16T11:08:31.731Z,52
2023-03-16T11:09:31.700Z,52
2023-03-16T11:10:32.326Z,51
2023-03-16T11:11:31.739Z,51
2023-03-16T11:12:32.390Z,51
2023-03-16T11:13:31.686Z,51
2023-03-16T11:14:31.695Z,51
2023-03-16T11:15:31.930Z,52
2023-03-16T11:16:31.799Z,52
2023-03-16T11:17:31.707Z,51
2023-03-16T11:18:31.717Z,51
2023-03-16T11:19:31.695Z,52
2023-03-16T11:20:31.734Z,52
2023-03-16T11:21:31.706Z,51
2023-03-16T11:22:32.015Z,52
2023-03-16T11:23:31.697Z,52
2023-03-16T11:24:31.724Z,51
2023-03-16T11:25:31.712Z,52
2023-03-16T11:26:31.736Z,52
2023-03-16T11:27:31.750Z,51
2023-03-16T11:28:31.747Z,52
2023-03-16T11:29:31.697Z,51
2023-03-16T11:30:31.714Z,51
2023-03-16T11:31:31.744Z,51
2023-03-16T11:32:31.731Z,51
2023-03-16T11:33:31.696Z,50
2023-03-16T11:34:31.745Z,51
2023-03-16T11:35:31.903Z,49
2023-03-16T11:36:31.805Z,50
2023-03-16T11:37:31.704Z,51
2023-03-16T11:38:31.713Z,50
2023-03-16T11:39:31.727Z,51
2023-03-16T11:40:31.721Z,51
2023-03-16T11:41:31.697Z,52
2023-03-16T11:42:31.727Z,51
2023-03-16T11:43:31.735Z,50
2023-03-16T11:44:31.727Z,49
2023-03-16T11:45:31.668Z,49
2023-03-16T11:46:31.755Z,50
2023-03-16T11:47:31.711Z,49
2023-03-16T11:48:31.728Z,49
2023-03-16T11:49:31.723Z,50
2023-03-16T11:50:31.681Z,50
2023-03-16T11:51:31.714Z,49
2023-03-16T11:52:31.714Z,50
2023-03-16T11:53:31.706Z,52
2023-03-16T11:54:31.677Z,50
2023-03-16T11:55:31.727Z,50
2023-03-16T11:56:31.700Z,49
2023-03-16T11:57:31.704Z,48
2023-03-16T11:58:31.712Z,49
2023-03-16T11:59:31.741Z,48
2023-03-16T12:00:31.715Z,49
2023-03-16T12:01:31.735Z,48
2023-03-16T12:02:31.866Z,49
2023-03-16T12:03:32.018Z,49
2023-03-16T12:04:31.821Z,49
2023-03-16T12:05:31.714Z,49
2023-03-16T12:06:31.673Z,49
2023-03-16T12:07:31.729Z,48
2023-03-16T12:08:31.770Z,49
2023-03-16T12:09:31.678Z,49
2023-03-16T12:10:31.671Z,48
2023-03-16T12:11:31.695Z,49
2023-03-16T12:12:31.698Z,49
2023-03-16T12:13:31.698Z,48
2023-03-16T12:14:31.681Z,47
2023-03-16T12:15:32.233Z,48
2023-03-16T12:16:46.355Z,48
2023-03-16T12:17:31.788Z,48
2023-03-16T12:18:31.680Z,48
2023-03-16T12:19:31.721Z,47
2023-03-16T12:20:31.781Z,47
2023-03-16T12:21:31.736Z,47
2023-03-16T12:22:31.678Z,48
2023-03-16T12:23:31.700Z,48
2023-03-16T12:24:31.704Z,49
2023-03-16T12:25:31.712Z,48
2023-03-16T12:26:31.677Z,49
2023-03-16T12:27:31.717Z,47
2023-03-16T12:28:31.688Z,47
2023-03-16T12:29:32.820Z,49
2023-03-16T12:30:31.672Z,49
2023-03-16T12:31:31.777Z,48
2023-03-16T12:32:31.740Z,49
2023-03-16T12:33:31.683Z,50
2023-03-16T12:34:31.674Z,48
2023-03-16T12:35:32.158Z,48
2023-03-16T12:36:31.691Z,49
2023-03-16T12:37:31.676Z,47
2023-03-16T12:38:31.723Z,47
2023-03-16T12:39:31.689Z,47
2023-03-16T12:40:31.805Z,47
2023-03-16T12:41:31.673Z,47
2023-03-16T12:42:31.676Z,48
2023-03-16T12:43:31.758Z,47
2023-03-16T12:44:31.716Z,49
2023-03-16T12:45:32.115Z,47
2023-03-16T12:46:31.703Z,48
2023-03-16T12:47:31.660Z,49
2023-03-16T12:48:31.670Z,49
2023-03-16T12:49:31.708Z,48
2023-03-16T12:50:31.698Z,49
2023-03-16T12:51:31.744Z,48
2023-03-16T12:52:31.668Z,47
2023-03-16T12:53:31.709Z,46
2023-03-16T12:54:31.696Z,47
2023-03-16T12:55:31.688Z,47
2023-03-16T12:56:31.673Z,47
2023-03-16T12:57:31.692Z,47
2023-03-16T12:58:31.705Z,47
2023-03-16T12:59:31.672Z,48
2023-03-16T13:00:31.735Z,47
2023-03-16T13:01:31.758Z,47
2023-03-16T13:02:31.710Z,47
2023-03-16T13:03:31.699Z,47
2023-03-16T13:04:31.772Z,45
2023-03-16T13:05:31.690Z,46
2023-03-16T13:06:31.695Z,46
2023-03-16T13:07:31.707Z,47
2023-03-16T13:08:31.774Z,48
2023-03-16T13:09:31.698Z,48
2023-03-16T13:10:31.770Z,48
2023-03-16T13:11:31.677Z,48
2023-03-16T13:12:31.691Z,47
2023-03-16T13:13:31.686Z,46
2023-03-16T13:14:31.709Z,47
2023-03-16T13:15:31.697Z,46
2023-03-16T13:16:31.864Z,46
2023-03-16T13:17:31.723Z,48
2023-03-16T13:18:31.701Z,47
2023-03-16T13:19:31.649Z,47
2023-03-16T13:20:32.471Z,46
2023-03-16T13:21:31.698Z,46
2023-03-16T13:22:31.732Z,46
2023-03-16T13:23:31.663Z,46
2023-03-16T13:24:31.695Z,46
2023-03-16T13:25:31.730Z,46
2023-03-16T13:26:31.733Z,45
2023-03-16T13:27:31.660Z,45
2023-03-16T13:28:31.668Z,46
2023-03-16T13:29:31.700Z,45
2023-03-16T13:30:31.939Z,46
2023-03-16T13:31:31.742Z,44
2023-03-16T13:32:31.711Z,44
2023-03-16T13:33:31.698Z,45
2023-03-16T13:34:31.703Z,44
2023-03-16T13:35:31.719Z,45
2023-03-16T13:36:31.683Z,46
2023-03-16T13:37:31.710Z,46
2023-03-16T13:38:31.693Z,45
2023-03-16T13:39:31.658Z,45
2023-03-16T13:40:31.677Z,46
2023-03-16T13:41:31.708Z,46
2023-03-16T13:42:31.730Z,47
2023-03-16T13:43:31.670Z,47
2023-03-16T13:44:31.668Z,46
2023-03-16T13:45:31.688Z,46
2023-03-16T13:46:31.697Z,47
2023-03-16T13:47:31.749Z,48
2023-03-16T13:48:31.657Z,48
2023-03-16T13:49:31.708Z,47
2023-03-16T13:50:31.666Z,48
2023-03-16T13:51:31.721Z,46
2023-03-16T13:52:31.767Z,46
2023-03-16T13:53:31.702Z,48
2023-03-16T13:54:31.690Z,47
2023-03-16T13:55:31.696Z,47
2023-03-16T13:56:31.674Z,47
2023-03-16T13:57:31.820Z,47
2023-03-16T13:58:33.666Z,45
2023-03-16T13:59:31.708Z,46
2023-03-16T14:00:31.734Z,45
2023-03-16T14:01:31.676Z,45
2023-03-16T14:02:31.733Z,45
2023-03-16T14:03:31.701Z,45
2023-03-16T14:04:31.684Z,45
2023-03-16T14:05:31.739Z,45
2023-03-16T14:06:31.646Z,46
2023-03-16T14:07:31.686Z,46
2023-03-16T14:08:31.664Z,46
2023-03-16T14:09:31.685Z,45
2023-03-16T14:10:31.675Z,46
2023-03-16T14:11:31.693Z,47
2023-03-16T14:12:31.671Z,48
2023-03-16T14:13:31.698Z,47
2023-03-16T14:14:31.664Z,49
2023-03-16T14:15:31.988Z,48